AirNav  
 
 400 users online  

CYZR Sarnia Chris Hadfield Airport
Sarnia, Ontario, Canada

GOING TO SARNIA?


FAA INFORMATION EFFECTIVE 29 MARCH 2018

Location

FAA Identifier: CYZR
Lat/Long: 42-59-58.0000N / 082-18-32.0000W
42-59.966667N / 082-18.533333W
42.9994444 / -82.3088889
(estimated)
Elevation: 594 ft. / 181 m (estimated)
Variation: 08W ()
From city: 4 miles ENE of SARNIA,
Time zone: UTC -4 (UTC -5 during Standard Time)
Zip code: 48060

Airport Operations

Airport use: Open to the public
Activation date: 03/2005
Control tower: no
ARTCC: TORONTO CENTER
FSS: LONDON FIC FLIGHT SERVICE STATION
Attendance: 
Segmented circle: no

Airport Communications

WX AWOS-3 at PHN (11 nm SW): 118.375 (810-364-7787)

Nearby radio navigation aids

NDB name  Hdg/Dist  Freq  Var  ID
SARNIA323/4.840406WZR --.. .-.

Airport Services

Runway Information

Runway 14/32

Dimensions: 5100 x 100 ft. / 1554 x 30 m
Surface: asphalt
RUNWAY 14  RUNWAY 32
Traffic pattern: leftleft

Runway 5/23

Dimensions: 2989 x 75 ft. / 911 x 23 m
Surface: asphalt
RUNWAY 5  RUNWAY 23
Traffic pattern: leftleft

Airport Ownership and Management from official FAA records

Ownership: Publicly-owned

Instrument Procedures

There are no published instrument procedures at CYZR.

Some nearby airports with instrument procedures:

KPHN - St Clair County International Airport (11 nm SW)
57D - Ray Community Airport (30 nm SW)
D98 - Romeo State Airport (32 nm W)
KMTC - Selfridge Air National Guard Base (33 nm SW)
77G - Marlette Airport (39 nm NW)
 
Loc | Ops | Rwys | IFR | FBO | Links
Com | Nav | Svcs | Stats | Notes

AirNav Hotels Sweepstakes
 
Aerial photo
No photo
 
Airport distance calculator
Flying to Sarnia Chris Hadfield Airport? Find the distance to fly.

From to CYZR

Sunrise and sunset
Times for 23-Apr-2018
 Local
(UTC-4)
 Zulu
(UTC)
Morning civil twilight06:0510:05
Sunrise06:3610:36
Sunset20:2000:20
Evening civil twilight20:5000:50

Current date and time
Zulu (UTC)  23-Apr-2018 06:17:55
Local (UTC-4)  23-Apr-2018 02:17:55
 
METAR
CYZR 230500Z AUTO 31005KT 9SM CLR 03/00 A3033 RMK SLP276
KPHN 
10nm SW 
230556Z AUTO 00000KT 10SM CLR 00/M02 A3033 RMK AO2
TAF
CYZR 221939Z 2220/2302 02010KT P6SM SKC BECMG 2300/2302 VRB03KT RMK FCST BASED ON AUTO OBS. NXT FCST WILL BE ISSUED AT 230745Z
NOTAMs
Click for the latest NOTAMs
NOTAMs are issued by the DoD/FAA and will open in a separate window not controlled by AirNav.

 

 
 

Would you like to see your business listed on this page?

 If your business provides an interesting product or service to pilots, flight crews, aircraft, or users of the Sarnia Chris Hadfield Airport, you should consider listing it here.  To start the listing process, click on the button below
 
Add a business
 

Other Pages about Sarnia Chris Hadfield Airport

Update a link
 
Copyright © AirNav, LLC. All rights reserved. Privacy Policy  Contact